createdAt,value
2023-02-02T17:41:50.230Z,36.73
2023-02-02T17:44:16.838Z,36.93
2023-02-02T17:46:43.459Z,35.50
2023-02-02T17:49:10.106Z,34.57
2023-02-02T17:51:41.214Z,38.07
2023-02-02T17:54:12.867Z,37.67
2023-02-02T17:56:40.327Z,42.10
2023-02-02T17:59:07.087Z,39.47
2023-02-02T18:01:39.130Z,37.37
2023-02-02T18:04:08.319Z,37.60
2023-02-02T18:06:34.951Z,36.43
2023-02-02T18:09:01.760Z,42.07
2023-02-02T18:11:28.388Z,33.97
2023-02-02T18:13:55.166Z,34.80
2023-02-02T18:16:22.604Z,42.10
2023-02-02T18:18:49.646Z,34.40
2023-02-02T18:21:16.502Z,37.30
2023-02-02T18:23:43.302Z,37.20
2023-02-02T18:26:19.692Z,32.80
2023-02-02T18:28:50.080Z,32.30
2023-02-02T18:31:19.577Z,29.17
2023-02-02T18:33:47.653Z,30.67
2023-02-02T18:36:17.735Z,27.63
2023-02-02T18:38:48.264Z,27.00
2023-02-02T18:41:16.653Z,27.83
2023-02-02T18:43:44.661Z,24.03
2023-02-02T18:46:13.911Z,23.00
2023-02-02T18:48:41.696Z,24.93
2023-02-02T18:51:17.991Z,24.47
2023-02-02T18:53:46.357Z,22.57
2023-02-02T18:56:14.643Z,21.37
2023-02-02T18:58:41.913Z,20.47
2023-02-02T19:01:17.409Z,19.07
2023-02-02T19:03:51.776Z,22.07
2023-02-02T19:06:38.868Z,20.27
2023-02-02T19:09:06.638Z,26.60
2023-02-02T19:11:48.237Z,20.20
2023-02-02T19:14:33.282Z,22.00
2023-02-02T19:17:17.994Z,21.90
2023-02-02T19:19:44.730Z,24.27
2023-02-02T19:22:22.845Z,22.23
2023-02-02T19:24:52.375Z,27.60
2023-02-02T19:27:26.573Z,26.93
2023-02-02T19:29:59.785Z,27.33
2023-02-02T19:32:30.960Z,31.27
2023-02-02T19:35:01.408Z,31.67
2023-02-02T19:37:31.028Z,32.80
2023-02-02T19:40:15.790Z,30.27
2023-02-02T19:43:24.722Z,35.03
2023-02-02T19:45:52.059Z,36.63
2023-02-02T19:48:22.517Z,35.47
2023-02-02T19:50:49.439Z,42.77
2023-02-02T19:53:38.439Z,43.97
2023-02-02T19:56:34.874Z,41.73
2023-02-02T19:59:01.775Z,48.20
2023-02-02T20:01:33.695Z,49.80
2023-02-02T20:04:04.066Z,49.37
2023-02-02T20:06:32.359Z,52.17
2023-02-02T20:09:00.898Z,49.40
2023-02-02T20:11:36.652Z,48.37
2023-02-02T20:14:28.723Z,51.07
2023-02-02T20:17:14.915Z,52.37
2023-02-02T20:19:44.518Z,53.07
2023-02-02T20:22:30.325Z,49.63
2023-02-02T20:24:57.741Z,48.43
2023-02-02T20:27:27.393Z,47.13
2023-02-02T20:30:01.309Z,52.07
2023-02-02T20:32:30.210Z,50.57
2023-02-02T20:34:58.526Z,50.70
2023-02-02T20:37:36.363Z,52.27
2023-02-02T20:40:07.697Z,59.17
2023-02-02T20:42:34.493Z,48.70
2023-02-02T20:45:01.177Z,46.43
2023-02-02T20:47:28.087Z,49.53
2023-02-02T20:49:57.324Z,53.33
2023-02-02T20:52:24.137Z,46.43
2023-02-02T20:54:52.191Z,45.20
2023-02-02T20:57:19.174Z,47.20
2023-02-02T20:59:46.124Z,46.17
2023-02-02T21:02:18.880Z,52.83
2023-02-02T21:04:47.594Z,52.30
2023-02-02T21:07:16.992Z,45.10
2023-02-02T21:09:44.927Z,45.80
2023-02-02T21:12:12.428Z,51.40
2023-02-02T21:14:39.308Z,47.40
2023-02-02T21:17:14.777Z,49.77
2023-02-02T21:19:43.382Z,45.97
2023-02-02T21:22:10.504Z,48.03
2023-02-02T21:24:37.249Z,49.87
2023-02-02T21:27:04.645Z,50.90
2023-02-02T21:29:32.637Z,44.70
2023-02-02T21:32:02.127Z,50.03
2023-02-02T21:34:30.070Z,49.00
2023-02-02T21:36:58.036Z,43.03
2023-02-02T21:39:37.660Z,39.20
2023-02-02T21:42:18.815Z,42.20
2023-02-02T21:44:49.587Z,36.57
2023-02-02T21:47:26.866Z,40.33
2023-02-02T21:49:56.903Z,40.53
2023-02-02T21:52:25.517Z,43.57
2023-02-02T21:54:52.212Z,38.53
2023-02-02T21:57:21.958Z,39.73
2023-02-02T21:59:56.769Z,38.15
2023-02-02T22:02:42.585Z,36.80
2023-02-02T22:05:22.333Z,35.30
2023-02-02T22:07:50.800Z,41.70
2023-02-02T22:10:38.298Z,39.10
2023-02-02T22:13:21.530Z,36.23
2023-02-02T22:15:51.621Z,36.90
2023-02-02T22:18:21.821Z,41.90
2023-02-02T22:20:50.625Z,37.90
2023-02-02T22:23:23.135Z,35.37
2023-02-02T22:25:53.057Z,33.80
2023-02-02T22:28:27.972Z,37.50
2023-02-02T22:30:56.343Z,38.93
2023-02-02T22:33:26.382Z,39.37
2023-02-02T22:35:56.438Z,36.90
2023-02-02T22:38:24.837Z,38.47
2023-02-02T22:40:52.741Z,38.63
2023-02-02T22:43:20.823Z,35.53
2023-02-02T22:45:48.239Z,39.53
2023-02-02T22:48:16.024Z,40.53
2023-02-02T22:50:42.900Z,39.30
2023-02-02T22:53:09.636Z,40.10
